sensor_id;sensor_type;location;lat;lon;timestamp;pressure;altitude;pressure_sealevel;temperature;humidity
76052;BME280;64751;48.708;9.710;2023-04-30T14:32:40;97727.69;;;16.54;44.46
76052;BME280;64751;48.708;9.710;2023-04-30T14:35:08;97729.59;;;16.62;45.21
76052;BME280;64751;48.708;9.710;2023-04-30T14:37:36;97721.59;;;16.62;46.26
76052;BME280;64751;48.708;9.710;2023-04-30T14:40:05;97723.47;;;16.61;44.91
76052;BME280;64751;48.708;9.710;2023-04-30T14:42:33;97715.94;;;16.63;45.07
76052;BME280;64751;48.708;9.710;2023-04-30T14:45:01;97704.66;;;16.66;45.07
76052;BME280;64751;48.708;9.710;2023-04-30T14:47:29;97703.72;;;16.62;44.29
76052;BME280;64751;48.708;9.710;2023-04-30T14:49:58;97702.31;;;16.56;45.05
76052;BME280;64751;48.708;9.710;2023-04-30T14:52:27;97702.22;;;16.48;46.54
76052;BME280;64751;48.708;9.710;2023-04-30T14:54:55;97689.06;;;16.43;46.59
76052;BME280;64751;48.708;9.710;2023-04-30T14:57:23;97694.41;;;16.43;46.64
76052;BME280;64751;48.708;9.710;2023-04-30T14:59:51;97683.56;;;16.48;45.53
76052;BME280;64751;48.708;9.710;2023-04-30T15:02:22;97675.78;;;16.51;45.55
76052;BME280;64751;48.708;9.710;2023-04-30T15:04:50;97682.06;;;16.64;44.44
76052;BME280;64751;48.708;9.710;2023-04-30T15:07:20;97679.09;;;16.74;44.50
76052;BME280;64751;48.708;9.710;2023-04-30T15:09:48;97676.72;;;16.73;44.15
76052;BME280;64751;48.708;9.710;2023-04-30T15:12:16;97671.59;;;16.85;46.98
76052;BME280;64751;48.708;9.710;2023-04-30T15:14:43;97670.00;;;16.84;45.07
76052;BME280;64751;48.708;9.710;2023-04-30T15:17:11;97675.97;;;16.72;45.51
76052;BME280;64751;48.708;9.710;2023-04-30T15:19:39;97670.47;;;16.77;44.58
76052;BME280;64751;48.708;9.710;2023-04-30T15:22:06;97667.50;;;16.79;44.79
76052;BME280;64751;48.708;9.710;2023-04-30T15:24:36;97663.72;;;16.71;44.91
76052;BME280;64751;48.708;9.710;2023-04-30T15:27:04;97664.03;;;16.61;43.26
76052;BME280;64751;48.708;9.710;2023-04-30T15:29:32;97659.56;;;16.48;43.71
76052;BME280;64751;48.708;9.710;2023-04-30T15:32:00;97666.69;;;16.61;45.48
76052;BME280;64751;48.708;9.710;2023-04-30T15:34:28;97667.97;;;16.72;47.62
76052;BME280;64751;48.708;9.710;2023-04-30T15:36:56;97671.41;;;16.73;46.23
76052;BME280;64751;48.708;9.710;2023-04-30T15:39:24;97671.41;;;16.73;44.91
76052;BME280;64751;48.708;9.710;2023-04-30T15:41:53;97656.97;;;16.65;44.36
76052;BME280;64751;48.708;9.710;2023-04-30T15:44:21;97657.13;;;16.60;43.59
76052;BME280;64751;48.708;9.710;2023-04-30T15:46:50;97656.50;;;16.63;44.43
76052;BME280;64751;48.708;9.710;2023-04-30T15:49:17;97659.31;;;16.66;45.99
76052;BME280;64751;48.708;9.710;2023-04-30T15:51:46;97653.38;;;16.61;44.96
76052;BME280;64751;48.708;9.710;2023-04-30T15:54:14;97652.25;;;16.53;43.18
76052;BME280;64751;48.708;9.710;2023-04-30T15:56:43;97651.09;;;16.46;43.27
76052;BME280;64751;48.708;9.710;2023-04-30T15:59:12;97652.22;;;16.45;43.50
76052;BME280;64751;48.708;9.710;2023-04-30T16:01:41;97644.34;;;16.40;44.56
76052;BME280;64751;48.708;9.710;2023-04-30T16:04:10;97647.94;;;16.27;44.91
76052;BME280;64751;48.708;9.710;2023-04-30T16:06:37;97639.00;;;16.31;44.95
76052;BME280;64751;48.708;9.710;2023-04-30T16:09:06;97648.75;;;16.36;45.92
76052;BME280;64751;48.708;9.710;2023-04-30T16:11:34;97651.41;;;16.36;44.32
76052;BME280;64751;48.708;9.710;2023-04-30T16:14:02;97651.06;;;16.29;46.74
76052;BME280;64751;48.708;9.710;2023-04-30T16:16:31;97643.41;;;16.27;48.79
76052;BME280;64751;48.708;9.710;2023-04-30T16:18:59;97645.25;;;16.18;46.48
76052;BME280;64751;48.708;9.710;2023-04-30T16:21:27;97643.31;;;16.10;47.03
76052;BME280;64751;48.708;9.710;2023-04-30T16:23:57;97644.25;;;16.06;47.63
76052;BME280;64751;48.708;9.710;2023-04-30T16:26:25;97642.69;;;16.05;47.03
76052;BME280;64751;48.708;9.710;2023-04-30T16:28:53;97641.25;;;15.98;48.38
76052;BME280;64751;48.708;9.710;2023-04-30T16:31:20;97636.25;;;15.97;47.98
76052;BME280;64751;48.708;9.710;2023-04-30T16:33:50;97639.34;;;15.90;46.93
76052;BME280;64751;48.708;9.710;2023-04-30T16:36:18;97636.22;;;15.88;48.08
76052;BME280;64751;48.708;9.710;2023-04-30T16:38:46;97631.34;;;15.90;47.74
76052;BME280;64751;48.708;9.710;2023-04-30T16:41:15;97634.97;;;15.94;47.98
76052;BME280;64751;48.708;9.710;2023-04-30T16:43:43;97631.50;;;15.94;47.65
76052;BME280;64751;48.708;9.710;2023-04-30T16:46:11;97625.56;;;15.88;47.24
76052;BME280;64751;48.708;9.710;2023-04-30T16:48:38;97622.41;;;15.86;46.48
76052;BME280;64751;48.708;9.710;2023-04-30T16:51:07;97626.59;;;15.79;46.67
76052;BME280;64751;48.708;9.710;2023-04-30T16:53:35;97622.69;;;15.76;46.34
76052;BME280;64751;48.708;9.710;2023-04-30T16:56:04;97619.53;;;15.74;46.77
76052;BME280;64751;48.708;9.710;2023-04-30T16:58:31;97621.25;;;15.70;46.98
76052;BME280;64751;48.708;9.710;2023-04-30T17:01:00;97613.56;;;15.69;47.81
76052;BME280;64751;48.708;9.710;2023-04-30T17:03:27;97612.91;;;15.63;49.14
76052;BME280;64751;48.708;9.710;2023-04-30T17:05:56;97608.34;;;15.55;48.19
76052;BME280;64751;48.708;9.710;2023-04-30T17:08:25;97617.09;;;15.56;47.65
76052;BME280;64751;48.708;9.710;2023-04-30T17:10:53;97620.19;;;15.49;45.32
76052;BME280;64751;48.708;9.710;2023-04-30T17:13:21;97615.03;;;15.44;47.09
76052;BME280;64751;48.708;9.710;2023-04-30T17:15:49;97618.84;;;15.38;47.45
76052;BME280;64751;48.708;9.710;2023-04-30T17:18:16;97623.69;;;15.36;47.07
76052;BME280;64751;48.708;9.710;2023-04-30T17:20:44;97617.09;;;15.34;47.29
76052;BME280;64751;48.708;9.710;2023-04-30T17:23:14;97626.00;;;15.29;46.75
76052;BME280;64751;48.708;9.710;2023-04-30T17:25:44;97620.50;;;15.25;46.32
76052;BME280;64751;48.708;9.710;2023-04-30T17:28:11;97629.28;;;15.26;47.06
76052;BME280;64751;48.708;9.710;2023-04-30T17:30:39;97624.25;;;15.24;48.87
76052;BME280;64751;48.708;9.710;2023-04-30T17:33:07;97633.66;;;15.22;48.50
76052;BME280;64751;48.708;9.710;2023-04-30T17:35:34;97623.00;;;15.22;49.48
76052;BME280;64751;48.708;9.710;2023-04-30T17:38:02;97622.03;;;15.18;47.94
76052;BME280;64751;48.708;9.710;2023-04-30T17:40:30;97627.19;;;15.14;49.34
76052;BME280;64751;48.708;9.710;2023-04-30T17:42:59;97623.34;;;15.07;48.75
76052;BME280;64751;48.708;9.710;2023-04-30T17:45:27;97622.88;;;15.05;49.50
76052;BME280;64751;48.708;9.710;2023-04-30T17:47:55;97624.56;;;15.01;53.37
76052;BME280;64751;48.708;9.710;2023-04-30T17:50:22;97625.31;;;14.93;50.88
76052;BME280;64751;48.708;9.710;2023-04-30T17:52:50;97626.50;;;14.87;51.07
76052;BME280;64751;48.708;9.710;2023-04-30T17:55:18;97632.22;;;14.80;53.54
76052;BME280;64751;48.708;9.710;2023-04-30T17:57:47;97630.00;;;14.74;54.56
76052;BME280;64751;48.708;9.710;2023-04-30T18:00:16;97636.22;;;14.69;55.67
76052;BME280;64751;48.708;9.710;2023-04-30T18:02:43;97627.97;;;14.57;56.02
76052;BME280;64751;48.708;9.710;2023-04-30T18:05:11;97628.97;;;14.47;56.68
76052;BME280;64751;48.708;9.710;2023-04-30T18:07:39;97635.78;;;14.40;55.88
76052;BME280;64751;48.708;9.710;2023-04-30T18:10:08;97632.47;;;14.34;58.00
76052;BME280;64751;48.708;9.710;2023-04-30T18:12:35;97631.56;;;14.25;57.60
76052;BME280;64751;48.708;9.710;2023-04-30T18:15:04;97633.50;;;14.20;59.01
76052;BME280;64751;48.708;9.710;2023-04-30T18:17:33;97630.56;;;14.08;59.72
76052;BME280;64751;48.708;9.710;2023-04-30T18:20:02;97629.97;;;13.97;59.92
76052;BME280;64751;48.708;9.710;2023-04-30T18:22:30;97626.66;;;13.92;59.75
76052;BME280;64751;48.708;9.710;2023-04-30T18:24:58;97635.00;;;13.85;59.45
76052;BME280;64751;48.708;9.710;2023-04-30T18:27:25;97630.38;;;13.77;60.39
76052;BME280;64751;48.708;9.710;2023-04-30T18:29:55;97635.09;;;13.66;61.19
76052;BME280;64751;48.708;9.710;2023-04-30T18:32:22;97640.78;;;13.60;61.80
76052;BME280;64751;48.708;9.710;2023-04-30T18:34:51;97638.03;;;13.51;61.83
76052;BME280;64751;48.708;9.710;2023-04-30T18:37:19;97641.53;;;13.47;62.26
76052;BME280;64751;48.708;9.710;2023-04-30T18:39:46;97641.13;;;13.40;62.73
76052;BME280;64751;48.708;9.710;2023-04-30T18:42:14;97629.69;;;13.26;62.82
76052;BME280;64751;48.708;9.710;2023-04-30T18:44:42;97631.44;;;13.17;63.17
76052;BME280;64751;48.708;9.710;2023-04-30T18:47:09;97642.84;;;13.17;64.11
76052;BME280;64751;48.708;9.710;2023-04-30T18:49:37;97645.84;;;13.11;64.03
76052;BME280;64751;48.708;9.710;2023-04-30T18:52:07;97650.22;;;13.01;64.75
76052;BME280;64751;48.708;9.710;2023-04-30T18:54:34;97644.28;;;12.91;64.50
76052;BME280;64751;48.708;9.710;2023-04-30T18:57:02;97647.31;;;12.84;65.35
76052;BME280;64751;48.708;9.710;2023-04-30T18:59:29;97657.09;;;12.84;64.98
76052;BME280;64751;48.708;9.710;2023-04-30T19:01:57;97653.53;;;12.75;64.99
76052;BME280;64751;48.708;9.710;2023-04-30T19:04:25;97661.53;;;12.70;64.91
76052;BME280;64751;48.708;9.710;2023-04-30T19:06:52;97670.41;;;12.60;64.94
76052;BME280;64751;48.708;9.710;2023-04-30T19:09:22;97661.53;;;12.51;65.16
76052;BME280;64751;48.708;9.710;2023-04-30T19:11:49;97666.91;;;12.46;65.48
76052;BME280;64751;48.708;9.710;2023-04-30T19:14:18;97663.22;;;12.42;65.82
76052;BME280;64751;48.708;9.710;2023-04-30T19:16:46;97662.81;;;12.35;65.93
76052;BME280;64751;48.708;9.710;2023-04-30T19:19:13;97658.13;;;12.27;65.78
76052;BME280;64751;48.708;9.710;2023-04-30T19:21:41;97666.88;;;12.27;65.74
76052;BME280;64751;48.708;9.710;2023-04-30T19:24:09;97664.53;;;12.26;66.03
76052;BME280;64751;48.708;9.710;2023-04-30T19:26:37;97672.28;;;12.17;66.63
76052;BME280;64751;48.708;9.710;2023-04-30T19:29:07;97657.72;;;11.96;66.23
76052;BME280;64751;48.708;9.710;2023-04-30T19:31:35;97669.59;;;11.99;66.49
76052;BME280;64751;48.708;9.710;2023-04-30T19:34:02;97675.72;;;11.94;67.15
76052;BME280;64751;48.708;9.710;2023-04-30T19:36:30;97655.75;;;11.83;66.72
76052;BME280;64751;48.708;9.710;2023-04-30T19:38:58;97669.44;;;11.90;66.73
76052;BME280;64751;48.708;9.710;2023-04-30T19:41:26;97670.28;;;11.86;67.26
76052;BME280;64751;48.708;9.710;2023-04-30T19:43:55;97676.63;;;11.85;67.40
76052;BME280;64751;48.708;9.710;2023-04-30T19:46:23;97665.88;;;11.76;67.12
76052;BME280;64751;48.708;9.710;2023-04-30T19:48:52;97659.59;;;11.67;67.03
76052;BME280;64751;48.708;9.710;2023-04-30T19:51:19;97667.56;;;11.62;67.78
76052;BME280;64751;48.708;9.710;2023-04-30T19:53:47;97665.75;;;11.57;67.52
76052;BME280;64751;48.708;9.710;2023-04-30T19:56:15;97667.91;;;11.50;67.67
76052;BME280;64751;48.708;9.710;2023-04-30T19:58:43;97657.66;;;11.44;68.03
76052;BME280;64751;48.708;9.710;2023-04-30T20:01:14;97662.16;;;11.43;68.06
76052;BME280;64751;48.708;9.710;2023-04-30T20:03:41;97666.44;;;11.39;68.48
76052;BME280;64751;48.708;9.710;2023-04-30T20:06:09;97665.97;;;11.32;69.16
76052;BME280;64751;48.708;9.710;2023-04-30T20:08:37;97667.31;;;11.30;68.54
76052;BME280;64751;48.708;9.710;2023-04-30T20:11:04;97661.50;;;11.28;69.13
76052;BME280;64751;48.708;9.710;2023-04-30T20:13:32;97657.63;;;11.20;69.26
76052;BME280;64751;48.708;9.710;2023-04-30T20:16:00;97646.56;;;11.13;69.08
76052;BME280;64751;48.708;9.710;2023-04-30T20:18:29;97664.53;;;11.16;69.27
76052;BME280;64751;48.708;9.710;2023-04-30T20:20:57;97660.84;;;11.12;69.15
76052;BME280;64751;48.708;9.710;2023-04-30T20:23:25;97660.31;;;11.15;69.01
76052;BME280;64751;48.708;9.710;2023-04-30T20:25:52;97665.59;;;11.15;69.03
76052;BME280;64751;48.708;9.710;2023-04-30T20:28:20;97660.84;;;11.12;68.68
76052;BME280;64751;48.708;9.710;2023-04-30T20:30:47;97661.97;;;11.06;68.62
76052;BME280;64751;48.708;9.710;2023-04-30T20:33:15;97660.44;;;11.00;69.44
76052;BME280;64751;48.708;9.710;2023-04-30T20:35:45;97661.06;;;10.87;69.13
76052;BME280;64751;48.708;9.710;2023-04-30T20:38:13;97661.91;;;10.77;69.19
76052;BME280;64751;48.708;9.710;2023-04-30T20:40:41;97659.81;;;10.69;68.89
76052;BME280;64751;48.708;9.710;2023-04-30T20:43:10;97650.63;;;10.62;68.90
76052;BME280;64751;48.708;9.710;2023-04-30T20:45:38;97653.53;;;10.60;69.13
76052;BME280;64751;48.708;9.710;2023-04-30T20:48:05;97644.34;;;10.58;68.99
76052;BME280;64751;48.708;9.710;2023-04-30T20:50:33;97653.31;;;10.57;69.93
76052;BME280;64751;48.708;9.710;2023-04-30T20:53:03;97652.56;;;10.51;70.11
76052;BME280;64751;48.708;9.710;2023-04-30T20:55:30;97653.06;;;10.53;69.98
76052;BME280;64751;48.708;9.710;2023-04-30T20:57:58;97649.13;;;10.51;70.40
76052;BME280;64751;48.708;9.710;2023-04-30T21:00:26;97656.53;;;10.49;70.27
76052;BME280;64751;48.708;9.710;2023-04-30T21:02:54;97652.28;;;10.48;70.79
76052;BME280;64751;48.708;9.710;2023-04-30T21:05:22;97658.66;;;10.47;70.14
76052;BME280;64751;48.708;9.710;2023-04-30T21:07:50;97657.56;;;10.48;70.04
76052;BME280;64751;48.708;9.710;2023-04-30T21:10:20;97667.63;;;10.46;69.99
76052;BME280;64751;48.708;9.710;2023-04-30T21:12:48;97650.25;;;10.40;69.22
76052;BME280;64751;48.708;9.710;2023-04-30T21:15:15;97653.19;;;10.33;69.44
76052;BME280;64751;48.708;9.710;2023-04-30T21:17:43;97652.91;;;10.30;69.52
76052;BME280;64751;48.708;9.710;2023-04-30T21:20:11;97659.00;;;10.25;68.85
76052;BME280;64751;48.708;9.710;2023-04-30T21:22:39;97654.81;;;10.19;69.63
76052;BME280;64751;48.708;9.710;2023-04-30T21:25:07;97656.41;;;10.15;69.13
76052;BME280;64751;48.708;9.710;2023-04-30T21:27:38;97655.63;;;10.14;69.11
76052;BME280;64751;48.708;9.710;2023-04-30T21:30:06;97648.00;;;10.13;69.61
76052;BME280;64751;48.708;9.710;2023-04-30T21:32:35;97644.00;;;10.10;68.89
76052;BME280;64751;48.708;9.710;2023-04-30T21:35:03;97637.69;;;10.06;69.50
76052;BME280;64751;48.708;9.710;2023-04-30T21:37:31;97628.19;;;10.05;69.71
76052;BME280;64751;48.708;9.710;2023-04-30T21:39:58;97627.66;;;10.03;69.83
76052;BME280;64751;48.708;9.710;2023-04-30T21:42:26;97631.91;;;9.99;70.18
76052;BME280;64751;48.708;9.710;2023-04-30T21:44:55;97630.09;;;9.95;70.96
76052;BME280;64751;48.708;9.710;2023-04-30T21:47:23;97633.25;;;9.97;70.58
76052;BME280;64751;48.708;9.710;2023-04-30T21:49:50;97638.50;;;9.97;70.67
76052;BME280;64751;48.708;9.710;2023-04-30T21:52:18;97637.72;;;9.96;69.92
76052;BME280;64751;48.708;9.710;2023-04-30T21:54:47;97628.78;;;9.87;70.12
76052;BME280;64751;48.708;9.710;2023-04-30T21:57:15;97629.81;;;9.86;70.53
76052;BME280;64751;48.708;9.710;2023-04-30T21:59:42;97633.03;;;9.83;69.71
